Mount Horeb, WI (53572)

7:00 PM CST on December 04, 2016 (GMT -0600)
Maple Dr. | | Change Station

Elev 1181 ft 43.00 °N, 89.74 °W | Updated 25 seconds ago

Overcast
Overcast
29.7 °F
Feels Like 30 °F
N
2.3
Wind Variable Wind from ENE
Gusts 3.8 mph

Today
High -- | Low -- °F
--% Chance of Precip.
Yesterday
High -- | Low -- °F
Precip. -- in
Pressure 29.85 in
Visibility 7.0 miles
Clouds Overcast 400 ft
Windchill 30 °F
Dew Point 25 °F
Humidity 84%
Rainfall 0.00 in
Snow Depth Not available.
7:14 AM 4:24 PM
Waxing Crescent, 27% visible
METAR KC29 050055Z AUTO 23005KT 7SM OVC004 00/00 A2985 RMK AO1 T00000000
Pressure 29.85 in
Visibility 7.0 miles
Clouds Overcast 400 ft
Windchill 30 °F
Dew Point 25 °F
Humidity 84%
Rainfall 0.00 in
Snow Depth Not available.
7:14 AM 4:24 PM
Waxing Crescent, 27% visible
METAR KC29 050055Z AUTO 23005KT 7SM OVC004 00/00 A2985 RMK AO1 T00000000

10-Day Weather Forecast

Almanac

Astronomy

Dec. 04, 2016 Rise Set
Actual Time
Civil Twilight
Nautical Twilight
Astronomical Twilight
Moon
Length of Visible Light
Length of Day
Tomorrow will be .
, % of the Moon is Illuminated

Today's Extremes

State Highs State Lows

Community

WunderPhotos

Upload Photos

1,955,729 photos uploaded!

WunderBlog® & News

Nearby

Air Quality

  Air Quality AQ Index Pollutant
Not available.

Snow Depth

Station Depth Elevation

Earthquake Activity

City Distance Mag. Time & Date
Minimum magnitude displayed is 2.5.

Coastal Water Temperatures

Place Temperature

Stations

Nearby Weather Stations

Station Location Temp. Windchill Dew Point Humidity Wind Precip. Elev Updated Type
                   

Watches & Warnings

There are currently no watches in effect.